createdAt,value
2022-10-05T00:00:17.742Z,68.20
2022-10-05T00:02:46.965Z,66.90
2022-10-05T00:05:28.632Z,68.49
2022-10-05T00:07:58.954Z,67.91
2022-10-05T00:10:27.384Z,67.87
2022-10-05T00:12:55.750Z,68.77
2022-10-05T00:15:25.562Z,69.99
2022-10-05T00:17:54.053Z,69.91
2022-10-05T00:20:25.592Z,69.33
2022-10-05T00:22:58.599Z,69.04
2022-10-05T00:25:27.104Z,68.43
2022-10-05T00:27:57.859Z,68.38
2022-10-05T00:30:33.616Z,69.47
2022-10-05T00:33:02.216Z,70.77
2022-10-05T00:35:31.623Z,71.28
2022-10-05T00:38:00.101Z,71.19
2022-10-05T00:40:38.029Z,70.22
2022-10-05T00:43:24.642Z,70.05
2022-10-05T00:45:58.964Z,70.57
2022-10-05T00:48:37.282Z,70.19
2022-10-05T00:51:21.456Z,69.83
2022-10-05T00:54:13.547Z,70.08
2022-10-05T00:57:10.562Z,69.01
2022-10-05T00:59:50.306Z,68.92
2022-10-05T01:02:30.913Z,68.78
2022-10-05T01:05:09.069Z,68.67
2022-10-05T01:07:46.936Z,69.90
2022-10-05T01:10:24.388Z,70.20
2022-10-05T01:13:04.956Z,70.23
2022-10-05T01:15:40.394Z,70.85
2022-10-05T01:18:17.763Z,70.63
2022-10-05T01:20:57.706Z,70.63
2022-10-05T01:24:07.703Z,70.58
2022-10-05T01:26:53.080Z,69.50
2022-10-05T01:29:26.349Z,70.44
2022-10-05T01:32:04.794Z,71.03
2022-10-05T01:34:41.505Z,70.12
2022-10-05T01:37:18.580Z,68.71
2022-10-05T01:39:53.921Z,68.72
2022-10-05T01:42:32.566Z,69.55
2022-10-05T01:45:07.737Z,69.55
2022-10-05T01:47:43.808Z,70.47
2022-10-05T01:50:21.442Z,69.30
2022-10-05T01:52:57.390Z,70.48
2022-10-05T01:55:32.799Z,69.74
2022-10-05T01:58:11.612Z,69.34
2022-10-05T02:00:46.993Z,69.74
2022-10-05T02:03:20.311Z,70.95
2022-10-05T02:05:54.157Z,69.40
2022-10-05T02:08:31.078Z,68.77
2022-10-05T02:11:03.499Z,68.05
2022-10-05T02:13:36.835Z,68.37
2022-10-05T02:16:15.771Z,68.40
2022-10-05T02:18:51.023Z,68.78
2022-10-05T02:21:21.968Z,69.23
2022-10-05T02:23:54.823Z,68.91
2022-10-05T02:26:25.529Z,69.98
2022-10-05T02:29:00.092Z,70.17
2022-10-05T02:31:37.487Z,69.21
2022-10-05T02:34:38.909Z,68.54
2022-10-05T02:37:33.169Z,69.85
2022-10-05T02:40:16.632Z,70.43
2022-10-05T02:42:52.737Z,71.68
2022-10-05T02:45:35.579Z,70.41
2022-10-05T02:48:16.226Z,72.23
2022-10-05T02:50:54.752Z,72.25
2022-10-05T02:53:30.196Z,72.86
2022-10-05T02:56:12.302Z,73.16
2022-10-05T02:58:47.487Z,73.82
2022-10-05T03:01:25.147Z,72.58
2022-10-05T03:04:06.407Z,72.05
2022-10-05T03:06:47.289Z,72.56
2022-10-05T03:09:21.639Z,72.47
2022-10-05T03:12:00.486Z,72.38
2022-10-05T03:14:41.325Z,72.59
2022-10-05T03:17:16.632Z,72.41
2022-10-05T03:20:14.639Z,71.57
2022-10-05T03:22:51.743Z,72.13
2022-10-05T03:25:51.465Z,71.66
2022-10-05T03:28:25.801Z,71.81
2022-10-05T03:31:02.599Z,71.59
2022-10-05T03:33:43.686Z,72.15
2022-10-05T03:36:23.157Z,73.44
2022-10-05T03:39:02.127Z,73.91
2022-10-05T03:41:38.058Z,73.66
2022-10-05T03:44:20.682Z,73.76
2022-10-05T03:47:09.354Z,73.44
2022-10-05T03:49:52.993Z,72.55
2022-10-05T03:52:27.552Z,72.22
2022-10-05T03:55:02.784Z,72.54
2022-10-05T03:57:37.758Z,71.98
2022-10-05T04:00:14.437Z,72.23
2022-10-05T04:02:54.223Z,72.04
2022-10-05T04:05:26.170Z,72.58
2022-10-05T04:08:00.797Z,72.68
2022-10-05T04:10:32.746Z,72.63
2022-10-05T04:13:08.154Z,73.61
2022-10-05T04:15:42.786Z,74.43
2022-10-05T04:18:23.689Z,74.25
2022-10-05T04:20:57.515Z,73.51
2022-10-05T04:23:39.783Z,73.93
2022-10-05T04:26:14.025Z,72.54
2022-10-05T04:28:50.208Z,74.02
2022-10-05T04:31:29.782Z,74.24
2022-10-05T04:34:11.652Z,73.17
2022-10-05T04:36:47.018Z,72.94
2022-10-05T04:39:27.383Z,72.61
2022-10-05T04:42:09.481Z,70.88
2022-10-05T04:45:03.701Z,73.26
2022-10-05T04:48:09.569Z,72.86
2022-10-05T04:50:53.601Z,72.77
2022-10-05T04:53:31.592Z,73.72
2022-10-05T04:56:09.410Z,73.45
2022-10-05T04:58:58.276Z,71.73
2022-10-05T05:01:41.293Z,72.33
2022-10-05T05:04:35.830Z,71.77
2022-10-05T05:07:21.708Z,73.17
2022-10-05T05:10:16.520Z,73.06
2022-10-05T05:12:57.438Z,72.30
2022-10-05T05:15:39.768Z,71.61
2022-10-05T05:18:33.856Z,70.34
2022-10-05T05:21:14.865Z,71.67
2022-10-05T05:23:50.617Z,70.88
2022-10-05T05:26:28.553Z,70.88
2022-10-05T05:29:10.104Z,71.39
2022-10-05T05:31:47.339Z,71.80
2022-10-05T05:34:34.417Z,70.29
2022-10-05T05:37:15.718Z,69.46
2022-10-05T05:39:53.636Z,70.33
2022-10-05T05:42:35.678Z,70.68
2022-10-05T05:45:15.872Z,69.01
2022-10-05T05:47:52.125Z,70.08
2022-10-05T05:50:43.318Z,67.25
2022-10-05T05:53:22.006Z,68.97
2022-10-05T05:55:56.480Z,68.29
2022-10-05T05:58:30.391Z,67.00
2022-10-05T06:01:06.585Z,65.14
2022-10-05T06:03:39.606Z,66.70
2022-10-05T06:06:12.717Z,66.07
2022-10-05T06:08:45.858Z,65.70
2022-10-05T06:11:49.375Z,68.74
2022-10-05T06:14:27.222Z,70.84
2022-10-05T06:17:02.609Z,69.86
2022-10-05T06:19:34.752Z,68.30
2022-10-05T06:22:08.584Z,69.87
2022-10-05T06:24:43.449Z,70.32
2022-10-05T06:27:26.500Z,70.00
2022-10-05T06:30:05.852Z,71.40
2022-10-05T06:32:59.199Z,71.31
2022-10-05T06:35:42.654Z,70.70
2022-10-05T06:38:29.229Z,70.67
2022-10-05T06:41:07.391Z,69.55
2022-10-05T06:43:48.697Z,70.88
2022-10-05T06:46:45.340Z,69.84
2022-10-05T06:49:26.681Z,69.30
2022-10-05T06:52:23.778Z,69.18
2022-10-05T06:55:08.585Z,67.95
2022-10-05T06:57:55.108Z,68.59
2022-10-05T07:00:26.381Z,69.29
2022-10-05T07:03:01.898Z,71.02
2022-10-05T07:05:49.169Z,69.69
2022-10-05T07:08:26.826Z,70.11
2022-10-05T07:11:05.996Z,70.23
2022-10-05T07:13:51.911Z,70.55
2022-10-05T07:16:31.219Z,70.43
2022-10-05T07:19:11.669Z,70.15
2022-10-05T07:21:48.825Z,70.19
2022-10-05T07:24:30.615Z,69.55
2022-10-05T07:27:11.127Z,69.85
2022-10-05T07:29:50.211Z,70.54
2022-10-05T07:32:33.877Z,70.75
2022-10-05T07:35:09.648Z,71.32
2022-10-05T07:37:55.045Z,70.77
2022-10-05T07:40:31.837Z,71.87
2022-10-05T07:43:08.972Z,71.18
2022-10-05T07:45:46.390Z,70.71
2022-10-05T07:48:20.168Z,69.76
2022-10-05T07:51:02.817Z,69.12
2022-10-05T07:53:39.031Z,68.34
2022-10-05T07:56:14.654Z,67.23
2022-10-05T07:58:48.153Z,67.37
2022-10-05T08:01:23.573Z,66.42
2022-10-05T08:03:59.308Z,65.21
2022-10-05T08:06:42.128Z,65.59
2022-10-05T08:09:28.207Z,63.67
2022-10-05T08:12:08.812Z,62.91
2022-10-05T08:14:45.963Z,62.86
2022-10-05T08:17:25.668Z,63.48
2022-10-05T08:20:00.558Z,62.43
2022-10-05T08:22:35.027Z,63.17
2022-10-05T08:25:11.183Z,64.45
2022-10-05T08:27:46.971Z,65.05
2022-10-05T08:30:17.546Z,65.05
2022-10-05T08:32:52.375Z,65.05
2022-10-05T08:35:32.020Z,64.96
2022-10-05T08:38:00.688Z,63.88
2022-10-05T08:41:03.097Z,64.71
2022-10-05T08:44:13.909Z,63.07
2022-10-05T08:47:16.062Z,63.05
2022-10-05T08:50:04.824Z,65.01
2022-10-05T08:52:43.411Z,66.01
2022-10-05T08:55:44.899Z,64.42
2022-10-05T08:58:51.048Z,63.82
2022-10-05T09:01:34.128Z,64.09
2022-10-05T09:04:23.825Z,63.23
2022-10-05T09:07:10.652Z,61.47
2022-10-05T09:10:12.519Z,63.81
2022-10-05T09:12:59.446Z,63.86
2022-10-05T09:16:03.356Z,63.87
2022-10-05T09:19:01.358Z,62.93
2022-10-05T09:21:43.052Z,64.05
2022-10-05T09:24:29.564Z,65.48
2022-10-05T09:27:03.648Z,64.10
2022-10-05T09:30:05.804Z,63.86
2022-10-05T09:33:17.718Z,63.48
2022-10-05T09:36:06.169Z,62.16
2022-10-05T09:38:50.988Z,64.41
2022-10-05T09:41:49.413Z,64.93
2022-10-05T09:44:32.705Z,63.29
2022-10-05T09:47:25.322Z,64.68
2022-10-05T09:50:13.435Z,64.37
2022-10-05T09:53:06.198Z,65.23
2022-10-05T09:56:10.534Z,65.25
2022-10-05T09:59:30.552Z,65.31
2022-10-05T10:02:20.625Z,64.79
2022-10-05T10:05:25.429Z,65.13
2022-10-05T10:08:11.763Z,65.81
2022-10-05T10:11:03.138Z,65.11
2022-10-05T10:14:10.497Z,65.66
2022-10-05T10:17:09.010Z,65.42
2022-10-05T10:20:05.426Z,63.73
2022-10-05T10:23:14.091Z,63.14
2022-10-05T10:26:20.903Z,63.75
2022-10-05T10:29:14.058Z,62.60
2022-10-05T10:31:58.276Z,63.38
2022-10-05T10:34:55.790Z,63.96
2022-10-05T10:37:39.261Z,62.26
2022-10-05T10:40:35.034Z,63.24
2022-10-05T10:43:33.275Z,62.33
2022-10-05T10:46:09.383Z,61.86
2022-10-05T10:48:55.814Z,62.39
2022-10-05T10:51:47.962Z,63.42
2022-10-05T10:54:53.608Z,62.85
2022-10-05T10:57:34.081Z,59.71
2022-10-05T11:00:18.177Z,61.48
2022-10-05T11:03:31.234Z,59.57
2022-10-05T11:06:27.650Z,60.88
2022-10-05T11:09:09.786Z,60.50
2022-10-05T11:12:13.647Z,61.06
2022-10-05T11:15:10.245Z,59.17
2022-10-05T11:18:06.129Z,58.65
2022-10-05T11:21:15.262Z,58.74
2022-10-05T11:24:14.121Z,58.71
2022-10-05T11:27:00.848Z,58.21
2022-10-05T11:29:49.589Z,58.97
2022-10-05T11:32:40.094Z,59.04
2022-10-05T11:35:43.185Z,58.37
2022-10-05T11:38:37.199Z,59.72
2022-10-05T11:41:34.337Z,59.23
2022-10-05T11:44:59.150Z,60.13
2022-10-05T11:47:32.516Z,59.02
2022-10-05T11:50:12.790Z,59.48
2022-10-05T11:52:48.622Z,59.33
2022-10-05T11:55:27.877Z,60.82
2022-10-05T11:58:01.196Z,60.13
2022-10-05T12:00:37.978Z,60.58
2022-10-05T12:03:32.264Z,60.07
2022-10-05T12:06:17.523Z,60.54
2022-10-05T12:08:58.688Z,60.15
2022-10-05T12:11:43.475Z,61.75
2022-10-05T12:14:24.451Z,62.07
2022-10-05T12:17:00.221Z,59.70
2022-10-05T12:19:36.926Z,59.84
2022-10-05T12:22:16.421Z,59.52
2022-10-05T12:25:15.097Z,59.44
2022-10-05T12:27:48.220Z,61.31
2022-10-05T12:30:19.969Z,61.18
2022-10-05T12:33:02.383Z,61.80
2022-10-05T12:35:53.770Z,62.72
2022-10-05T12:38:29.709Z,62.13
2022-10-05T12:41:11.319Z,61.36
2022-10-05T12:43:50.455Z,58.76
2022-10-05T12:46:28.468Z,59.56
2022-10-05T12:49:28.415Z,58.63
2022-10-05T12:52:02.191Z,57.66
2022-10-05T12:54:43.985Z,60.31
2022-10-05T12:57:21.720Z,58.61
2022-10-05T12:59:57.929Z,60.17
2022-10-05T13:02:39.185Z,63.18
2022-10-05T13:05:21.448Z,63.36
2022-10-05T13:08:09.540Z,61.64
2022-10-05T13:10:41.965Z,63.27
2022-10-05T13:13:37.463Z,62.86
2022-10-05T13:16:18.535Z,64.79
2022-10-05T13:19:01.619Z,65.00
2022-10-05T13:21:40.828Z,63.79
2022-10-05T13:24:19.698Z,63.13
2022-10-05T13:26:54.405Z,63.55
2022-10-05T13:29:30.286Z,61.96
2022-10-05T13:32:05.987Z,62.28
2022-10-05T13:34:42.719Z,63.07
2022-10-05T13:37:21.235Z,63.68
2022-10-05T13:39:59.791Z,60.98
2022-10-05T13:42:36.890Z,61.60
2022-10-05T13:45:14.677Z,62.64
2022-10-05T13:47:55.097Z,62.88
2022-10-05T13:50:32.661Z,63.08
2022-10-05T13:53:13.883Z,64.46
2022-10-05T13:55:47.771Z,63.40
2022-10-05T13:58:24.118Z,64.60
2022-10-05T14:00:56.066Z,66.41
2022-10-05T14:03:31.403Z,64.34
2022-10-05T14:06:02.784Z,65.49
2022-10-05T14:08:34.819Z,66.80
2022-10-05T14:11:22.220Z,66.45
2022-10-05T14:13:53.302Z,65.41
2022-10-05T14:16:23.831Z,65.60
2022-10-05T14:18:56.380Z,66.74
2022-10-05T14:21:27.457Z,64.01
2022-10-05T14:23:57.264Z,64.16
2022-10-05T14:26:38.741Z,62.82
2022-10-05T14:29:19.358Z,65.27
2022-10-05T14:31:53.145Z,64.86
2022-10-05T14:34:35.268Z,64.62
2022-10-05T14:37:18.744Z,66.45
2022-10-05T14:39:49.996Z,66.85
2022-10-05T14:42:22.912Z,65.82
2022-10-05T14:45:12.808Z,64.82
2022-10-05T14:47:49.139Z,63.74
2022-10-05T14:50:21.613Z,64.14
2022-10-05T14:53:05.171Z,64.41
2022-10-05T14:56:05.375Z,65.01
2022-10-05T14:58:59.092Z,64.96
2022-10-05T15:01:31.146Z,65.06
2022-10-05T15:04:13.676Z,64.10
2022-10-05T15:06:51.106Z,65.05
2022-10-05T15:09:47.487Z,65.63
2022-10-05T15:12:23.697Z,64.69
2022-10-05T15:15:02.884Z,64.73
2022-10-05T15:17:37.888Z,63.76
2022-10-05T15:20:18.056Z,63.25
2022-10-05T15:22:51.477Z,64.19
2022-10-05T15:25:32.399Z,63.07
2022-10-05T15:28:21.844Z,63.28
2022-10-05T15:31:01.502Z,64.80
2022-10-05T15:33:39.836Z,65.50
2022-10-05T15:36:20.390Z,65.24
2022-10-05T15:39:03.575Z,65.34
2022-10-05T15:41:49.302Z,65.23
2022-10-05T15:44:29.939Z,64.60
2022-10-05T15:47:06.465Z,66.72
2022-10-05T15:49:47.831Z,66.13
2022-10-05T15:52:24.901Z,65.69
2022-10-05T15:55:19.735Z,65.46
2022-10-05T15:57:59.756Z,64.58
2022-10-05T16:00:35.780Z,63.29
2022-10-05T16:03:20.375Z,63.54
2022-10-05T16:06:12.918Z,64.73
2022-10-05T16:09:11.353Z,66.86
2022-10-05T16:12:05.663Z,66.68
2022-10-05T16:14:45.342Z,67.42
2022-10-05T16:17:28.392Z,66.90
2022-10-05T16:20:17.766Z,67.11
2022-10-05T16:22:59.836Z,66.41
2022-10-05T16:25:45.874Z,67.49
2022-10-05T16:28:29.341Z,68.32
2022-10-05T16:31:04.571Z,68.07
2022-10-05T16:33:53.132Z,70.12
2022-10-05T16:36:37.795Z,68.68
2022-10-05T16:39:15.514Z,69.02
2022-10-05T16:41:57.297Z,70.06
2022-10-05T16:44:37.673Z,68.67
2022-10-05T16:47:29.440Z,68.23
2022-10-05T16:50:05.340Z,68.04
2022-10-05T16:52:44.285Z,69.56
2022-10-05T16:55:20.446Z,68.25
2022-10-05T16:57:56.130Z,67.94
2022-10-05T17:00:30.299Z,67.11
2022-10-05T17:03:26.180Z,67.57
2022-10-05T17:06:22.042Z,68.38
2022-10-05T17:09:20.480Z,67.63
2022-10-05T17:12:04.528Z,68.80
2022-10-05T17:14:42.327Z,69.25
2022-10-05T17:17:41.579Z,70.60
2022-10-05T17:20:41.645Z,70.40
2022-10-05T17:23:35.851Z,69.52
2022-10-05T17:26:45.200Z,69.21
2022-10-05T17:29:32.009Z,70.95
2022-10-05T17:32:14.045Z,70.36
2022-10-05T17:35:18.478Z,69.74
2022-10-05T17:38:08.050Z,67.57
2022-10-05T17:40:40.545Z,68.64
2022-10-05T17:46:12.706Z,67.91
2022-10-05T17:49:08.923Z,69.85
2022-10-05T17:52:21.662Z,68.31
2022-10-05T17:55:28.321Z,68.73
2022-10-05T17:58:21.900Z,68.83
2022-10-05T18:01:15.090Z,67.53
2022-10-05T18:03:51.596Z,68.12
2022-10-05T18:06:37.978Z,67.41
2022-10-05T18:09:33.217Z,67.29
2022-10-05T18:12:28.260Z,66.47
2022-10-05T18:15:31.597Z,68.09
2022-10-05T18:18:25.263Z,67.18
2022-10-05T18:21:28.871Z,66.73
2022-10-05T18:24:20.101Z,65.65
2022-10-05T18:27:04.654Z,66.53
2022-10-05T18:30:09.514Z,67.81
2022-10-05T18:32:59.044Z,67.81
2022-10-05T18:35:38.213Z,66.14
2022-10-05T18:38:34.798Z,65.93
2022-10-05T18:41:10.341Z,66.48
2022-10-05T18:43:45.894Z,66.25
2022-10-05T18:46:33.126Z,66.58
2022-10-05T18:49:32.020Z,66.57
2022-10-05T18:52:13.610Z,65.72
2022-10-05T18:55:00.967Z,65.34
2022-10-05T18:58:19.230Z,68.22
2022-10-05T19:01:18.054Z,68.17
2022-10-05T19:04:04.872Z,68.33
2022-10-05T19:06:47.889Z,67.11
2022-10-05T19:09:42.147Z,66.39
2022-10-05T19:12:24.366Z,65.88
2022-10-05T19:15:06.633Z,64.18
2022-10-05T19:18:07.394Z,64.34
2022-10-05T19:20:48.615Z,64.10
2022-10-05T19:23:37.514Z,63.62
2022-10-05T19:26:27.571Z,64.24
2022-10-05T19:29:12.520Z,65.44
2022-10-05T19:31:51.129Z,65.38
2022-10-05T19:34:43.580Z,66.07
2022-10-05T19:37:23.224Z,68.37
2022-10-05T19:40:07.338Z,67.43
2022-10-05T19:43:07.355Z,67.09
2022-10-05T19:45:44.865Z,68.13
2022-10-05T19:48:30.653Z,68.79
2022-10-05T19:51:04.880Z,67.06
2022-10-05T19:53:38.710Z,68.94
2022-10-05T19:56:20.865Z,66.32
2022-10-05T19:59:00.360Z,65.01
2022-10-05T20:01:39.505Z,65.90
2022-10-05T20:04:11.946Z,65.21
2022-10-05T20:06:40.949Z,64.58
2022-10-05T20:09:27.800Z,65.95
2022-10-05T20:12:00.993Z,65.54
2022-10-05T20:14:59.216Z,64.78
2022-10-05T20:17:56.061Z,65.60
2022-10-05T20:20:39.659Z,64.96
2022-10-05T20:23:24.087Z,65.35
2022-10-05T20:26:13.331Z,66.06
2022-10-05T20:28:43.202Z,65.73
2022-10-05T20:31:12.678Z,63.87
2022-10-05T20:33:42.899Z,63.36
2022-10-05T20:36:13.598Z,62.89
2022-10-05T20:38:45.764Z,63.71
2022-10-05T20:41:17.938Z,63.44
2022-10-05T20:43:49.385Z,64.22
2022-10-05T20:46:21.791Z,62.93
2022-10-05T20:48:53.888Z,64.46
2022-10-05T20:51:23.689Z,63.82
2022-10-05T20:53:52.241Z,62.62
2022-10-05T20:56:26.401Z,63.95
2022-10-05T20:58:55.477Z,63.07
2022-10-05T21:01:27.148Z,63.74
2022-10-05T21:03:58.021Z,63.77
2022-10-05T21:06:28.234Z,63.13
2022-10-05T21:08:57.179Z,63.47
2022-10-05T21:11:28.711Z,64.69
2022-10-05T21:14:04.797Z,64.33
2022-10-05T21:16:38.398Z,64.09
2022-10-05T21:19:17.129Z,64.97
2022-10-05T21:21:47.152Z,65.05
2022-10-05T21:24:18.861Z,65.67
2022-10-05T21:26:50.308Z,65.76
2022-10-05T21:29:22.444Z,65.41
2022-10-05T21:31:51.241Z,66.06
2022-10-05T21:34:20.859Z,64.16
2022-10-05T21:36:49.378Z,64.30
2022-10-05T21:39:21.093Z,63.73
2022-10-05T21:41:49.908Z,63.08
2022-10-05T21:44:20.942Z,62.14
2022-10-05T21:46:51.399Z,62.73
2022-10-05T21:49:21.772Z,62.91
2022-10-05T21:51:50.319Z,62.87
2022-10-05T21:54:22.064Z,62.15
2022-10-05T21:56:52.885Z,62.14
2022-10-05T21:59:25.352Z,62.60
2022-10-05T22:01:54.150Z,63.08
2022-10-05T22:04:24.412Z,63.74
2022-10-05T22:06:52.825Z,63.74
2022-10-05T22:09:21.209Z,63.89
2022-10-05T22:11:50.229Z,63.25
2022-10-05T22:14:18.933Z,63.48
2022-10-05T22:16:47.802Z,62.25
2022-10-05T22:19:19.377Z,63.39
2022-10-05T22:21:49.320Z,62.66
2022-10-05T22:24:18.073Z,62.52
2022-10-05T22:26:49.116Z,62.78
2022-10-05T22:29:18.325Z,62.62
2022-10-05T22:31:49.155Z,61.97
2022-10-05T22:34:18.288Z,63.19
2022-10-05T22:36:48.777Z,61.92
2022-10-05T22:39:18.364Z,62.87
2022-10-05T22:41:46.969Z,62.81
2022-10-05T22:44:15.416Z,62.47
2022-10-05T22:46:44.738Z,62.27
2022-10-05T22:49:13.228Z,62.19
2022-10-05T22:51:41.664Z,62.08
2022-10-05T22:54:11.512Z,63.22
2022-10-05T22:56:39.857Z,63.51
2022-10-05T22:59:08.439Z,63.50
2022-10-05T23:01:36.928Z,63.53
2022-10-05T23:04:05.522Z,63.33
2022-10-05T23:06:33.908Z,63.16
2022-10-05T23:09:02.341Z,62.56
2022-10-05T23:11:32.129Z,62.85
2022-10-05T23:14:00.699Z,63.48
2022-10-05T23:16:30.279Z,64.04
2022-10-05T23:19:00.224Z,64.37
2022-10-05T23:21:30.932Z,64.26
2022-10-05T23:23:59.416Z,63.80
2022-10-05T23:26:28.018Z,63.60
2022-10-05T23:28:57.866Z,63.12
2022-10-05T23:31:28.144Z,62.32
2022-10-05T23:33:56.612Z,62.37
2022-10-05T23:36:27.678Z,63.14
2022-10-05T23:38:56.170Z,63.34
2022-10-05T23:41:25.572Z,63.97
2022-10-05T23:43:55.340Z,63.85
2022-10-05T23:46:25.485Z,63.88
2022-10-05T23:48:54.393Z,64.71
2022-10-05T23:51:22.462Z,63.91
2022-10-05T23:53:50.862Z,64.30
2022-10-05T23:56:19.289Z,64.18
2022-10-05T23:58:47.704Z,63.62
